createdAt,value
2022-12-10T00:00:46.675Z,78.62
2022-12-10T00:03:22.349Z,78.56
2022-12-10T00:05:54.440Z,78.72
2022-12-10T00:08:26.610Z,78.90
2022-12-10T00:10:59.137Z,79.00
2022-12-10T00:13:31.253Z,78.96
2022-12-10T00:16:04.847Z,78.89
2022-12-10T00:18:38.739Z,79.12
2022-12-10T00:21:12.723Z,79.19
2022-12-10T00:23:44.844Z,79.11
2022-12-10T00:26:18.717Z,78.93
2022-12-10T00:28:51.814Z,79.08
2022-12-10T00:31:26.551Z,78.67
2022-12-10T00:34:00.350Z,78.73
2022-12-10T00:36:35.050Z,78.73
2022-12-10T00:39:08.243Z,78.54
2022-12-10T00:41:40.718Z,78.71
2022-12-10T00:44:13.506Z,78.98
2022-12-10T00:46:46.028Z,79.08
2022-12-10T00:49:18.093Z,78.93
2022-12-10T00:51:50.185Z,79.12
2022-12-10T00:54:22.328Z,79.25
2022-12-10T00:56:54.590Z,78.91
2022-12-10T00:59:26.718Z,78.97
2022-12-10T01:01:59.472Z,78.91
2022-12-10T01:04:31.769Z,78.96
2022-12-10T01:07:08.196Z,79.15
2022-12-10T01:09:43.272Z,78.78
2022-12-10T01:12:15.493Z,78.55
2022-12-10T01:14:47.614Z,78.74
2022-12-10T01:17:22.030Z,78.70
2022-12-10T01:19:54.148Z,78.46
2022-12-10T01:22:26.264Z,78.62
2022-12-10T01:24:58.791Z,78.75
2022-12-10T01:27:30.958Z,78.84
2022-12-10T01:30:03.462Z,78.97
2022-12-10T01:32:35.603Z,78.82
2022-12-10T01:35:08.516Z,78.91
2022-12-10T01:37:40.706Z,78.92
2022-12-10T01:40:15.209Z,78.76
2022-12-10T01:42:47.447Z,78.91
2022-12-10T01:45:21.155Z,78.90
2022-12-10T01:47:53.348Z,78.94
2022-12-10T01:50:25.695Z,78.61
2022-12-10T01:52:57.786Z,78.17
2022-12-10T01:55:50.642Z,78.44
2022-12-10T01:58:23.041Z,78.41
2022-12-10T02:01:07.137Z,78.77
2022-12-10T02:03:49.421Z,78.67
2022-12-10T02:06:33.390Z,78.55
2022-12-10T02:09:15.673Z,78.53
2022-12-10T02:11:53.237Z,79.08
2022-12-10T02:14:32.268Z,78.84
2022-12-10T02:17:09.204Z,78.77
2022-12-10T02:19:58.669Z,78.80
2022-12-10T02:22:36.549Z,79.01
2022-12-10T02:25:13.323Z,79.02
2022-12-10T02:27:54.682Z,78.87
2022-12-10T02:30:27.338Z,78.68
2022-12-10T02:33:02.577Z,78.45
2022-12-10T02:35:39.682Z,78.35
2022-12-10T02:38:18.024Z,78.55
2022-12-10T02:40:54.396Z,78.44
2022-12-10T02:43:29.247Z,78.58
2022-12-10T02:46:05.079Z,78.67
2022-12-10T02:48:39.421Z,78.51
2022-12-10T02:51:11.639Z,78.87
2022-12-10T02:53:47.469Z,78.82
2022-12-10T02:56:29.032Z,78.74
2022-12-10T02:59:17.253Z,78.47
2022-12-10T03:01:59.198Z,78.40
2022-12-10T03:04:38.485Z,78.22
2022-12-10T03:07:16.642Z,78.42
2022-12-10T03:09:54.239Z,78.15
2022-12-10T03:12:31.733Z,78.03
2022-12-10T03:15:07.434Z,78.21
2022-12-10T03:17:41.887Z,78.21
2022-12-10T03:20:17.682Z,78.43
2022-12-10T03:22:51.257Z,78.50
2022-12-10T03:25:27.095Z,78.49
2022-12-10T03:28:01.302Z,78.49
2022-12-10T03:30:38.439Z,78.51
2022-12-10T03:33:10.834Z,78.68
2022-12-10T03:35:43.901Z,78.70
2022-12-10T03:38:16.479Z,78.80
2022-12-10T03:40:48.566Z,78.65
2022-12-10T03:43:20.610Z,78.78
2022-12-10T03:45:52.759Z,78.69
2022-12-10T03:48:24.846Z,78.31
2022-12-10T03:50:56.910Z,78.07
2022-12-10T03:53:29.106Z,78.24
2022-12-10T03:56:01.255Z,78.29
2022-12-10T03:58:33.415Z,78.53
2022-12-10T04:01:05.708Z,78.31
2022-12-10T04:03:40.087Z,78.45
2022-12-10T04:06:15.541Z,78.81
2022-12-10T04:08:50.924Z,78.88
2022-12-10T04:11:25.417Z,79.00
2022-12-10T04:14:15.432Z,78.92
2022-12-10T04:16:47.528Z,78.78
2022-12-10T04:19:20.687Z,78.95
2022-12-10T04:22:10.546Z,78.75
2022-12-10T04:25:00.352Z,78.72
2022-12-10T04:27:35.037Z,78.68
2022-12-10T04:30:11.119Z,78.22
2022-12-10T04:32:43.572Z,78.23
2022-12-10T04:35:15.837Z,78.14
2022-12-10T04:37:47.903Z,78.15
2022-12-10T04:40:20.114Z,78.18
2022-12-10T04:42:52.184Z,78.28
2022-12-10T04:45:24.557Z,78.56
2022-12-10T04:47:56.572Z,78.70
2022-12-10T04:50:29.606Z,78.66
2022-12-10T04:53:01.727Z,78.58
2022-12-10T04:55:33.819Z,78.75
2022-12-10T04:58:05.885Z,78.59
2022-12-10T05:00:37.926Z,78.61
2022-12-10T05:03:10.071Z,78.71
2022-12-10T05:05:42.163Z,78.48
2022-12-10T05:08:14.396Z,78.25
2022-12-10T05:10:46.522Z,78.18
2022-12-10T05:13:18.972Z,78.14
2022-12-10T05:15:51.106Z,78.22
2022-12-10T05:18:23.230Z,78.34
2022-12-10T05:20:55.578Z,78.24
2022-12-10T05:23:30.796Z,78.28
2022-12-10T05:26:05.342Z,78.52
2022-12-10T05:28:39.429Z,78.60
2022-12-10T05:31:17.764Z,78.54
2022-12-10T05:33:50.934Z,78.41
2022-12-10T05:36:24.459Z,78.61
2022-12-10T05:38:57.855Z,78.60
2022-12-10T05:41:35.784Z,78.40
2022-12-10T05:44:08.903Z,78.55
2022-12-10T05:46:41.085Z,78.42
2022-12-10T05:49:13.567Z,78.31
2022-12-10T05:51:45.686Z,78.21
2022-12-10T05:54:17.776Z,78.21
2022-12-10T05:56:49.920Z,78.02
2022-12-10T05:59:22.101Z,78.00
2022-12-10T06:01:54.206Z,77.93
2022-12-10T06:04:26.377Z,78.15
2022-12-10T06:06:58.466Z,78.38
2022-12-10T06:09:30.555Z,78.51
2022-12-10T06:12:02.651Z,78.78
2022-12-10T06:14:35.301Z,78.69
2022-12-10T06:17:07.443Z,78.61
2022-12-10T06:19:39.510Z,78.70
2022-12-10T06:22:11.609Z,78.62
2022-12-10T06:24:43.744Z,78.54
2022-12-10T06:27:15.937Z,78.62
2022-12-10T06:29:48.203Z,78.49
2022-12-10T06:32:20.299Z,78.22
2022-12-10T06:34:52.425Z,77.97
2022-12-10T06:37:24.507Z,78.10
2022-12-10T06:39:56.756Z,78.29
2022-12-10T06:42:28.952Z,78.30
2022-12-10T06:45:01.140Z,78.55
2022-12-10T06:47:33.615Z,78.40
2022-12-10T06:50:07.239Z,78.67
2022-12-10T06:52:39.564Z,78.53
2022-12-10T06:55:12.141Z,78.52
2022-12-10T06:57:44.619Z,78.98
2022-12-10T07:00:21.976Z,78.64
2022-12-10T07:02:54.564Z,78.48
2022-12-10T07:05:26.885Z,78.74
2022-12-10T07:07:59.015Z,78.55
2022-12-10T07:10:32.090Z,78.34
2022-12-10T07:13:04.205Z,78.13
2022-12-10T07:15:36.706Z,78.25
2022-12-10T07:18:09.287Z,78.01
2022-12-10T07:20:41.402Z,78.08
2022-12-10T07:23:13.800Z,78.40
2022-12-10T07:25:45.894Z,78.22
2022-12-10T07:28:18.086Z,78.34
2022-12-10T07:30:50.178Z,78.44
2022-12-10T07:33:22.319Z,78.61
2022-12-10T07:35:54.642Z,78.65
2022-12-10T07:38:27.015Z,78.74
2022-12-10T07:40:59.134Z,78.66
2022-12-10T07:43:31.197Z,78.60
2022-12-10T07:46:09.253Z,78.64
2022-12-10T07:48:42.931Z,78.63
2022-12-10T07:51:16.761Z,78.33
2022-12-10T07:53:49.445Z,78.36
2022-12-10T07:56:22.712Z,78.12
2022-12-10T07:58:55.423Z,78.04
2022-12-10T08:01:28.618Z,77.93
2022-12-10T08:04:00.781Z,78.13
2022-12-10T08:06:32.983Z,78.39
2022-12-10T08:09:05.146Z,78.43
2022-12-10T08:11:37.217Z,78.53
2022-12-10T08:14:09.708Z,78.59
2022-12-10T08:16:41.780Z,78.50
2022-12-10T08:19:20.963Z,78.47
2022-12-10T08:21:54.534Z,78.57
2022-12-10T08:24:26.649Z,78.63
2022-12-10T08:26:58.695Z,78.53
2022-12-10T08:29:30.832Z,78.49
2022-12-10T08:32:03.018Z,78.40
2022-12-10T08:34:35.323Z,77.96
2022-12-10T08:37:12.044Z,78.18
2022-12-10T08:39:44.577Z,78.32
2022-12-10T08:42:16.920Z,78.30
2022-12-10T08:44:49.013Z,78.20
2022-12-10T08:47:21.769Z,78.42
2022-12-10T08:49:53.863Z,78.27
2022-12-10T08:52:26.081Z,78.65
2022-12-10T08:54:58.405Z,78.75
2022-12-10T08:57:30.520Z,78.45
2022-12-10T09:00:02.719Z,78.40
2022-12-10T09:02:35.232Z,78.55
2022-12-10T09:05:09.154Z,78.64
2022-12-10T09:07:41.295Z,78.55
2022-12-10T09:10:14.407Z,78.52
2022-12-10T09:12:46.550Z,78.32
2022-12-10T09:15:18.875Z,78.12
2022-12-10T09:17:51.066Z,77.90
2022-12-10T09:20:23.136Z,77.93
2022-12-10T09:22:55.249Z,78.02
2022-12-10T09:25:27.748Z,78.26
2022-12-10T09:27:59.841Z,78.18
2022-12-10T09:30:32.009Z,78.53
2022-12-10T09:33:04.697Z,78.36
2022-12-10T09:35:36.806Z,78.73
2022-12-10T09:38:09.281Z,78.56
2022-12-10T09:40:47.442Z,78.48
2022-12-10T09:43:25.804Z,78.45
2022-12-10T09:46:08.837Z,78.44
2022-12-10T09:48:55.183Z,78.21
2022-12-10T09:51:31.033Z,78.45
2022-12-10T09:54:05.256Z,78.25
2022-12-10T09:56:41.018Z,78.06
2022-12-10T09:59:20.522Z,77.84
2022-12-10T10:02:01.699Z,77.98
2022-12-10T10:04:33.915Z,78.01
2022-12-10T10:07:08.771Z,78.22
2022-12-10T10:09:43.688Z,78.20
2022-12-10T10:12:15.820Z,78.20
2022-12-10T10:14:48.398Z,78.44
2022-12-10T10:17:31.357Z,78.33
2022-12-10T10:20:05.767Z,78.61
2022-12-10T10:22:37.832Z,78.55
2022-12-10T10:25:18.271Z,78.69
2022-12-10T10:27:50.284Z,78.51
2022-12-10T10:30:25.457Z,78.47
2022-12-10T10:32:59.714Z,78.51
2022-12-10T10:35:35.569Z,78.32
2022-12-10T10:38:16.005Z,78.14
2022-12-10T10:40:53.222Z,78.10
2022-12-10T10:43:28.955Z,78.08
2022-12-10T10:46:05.933Z,78.06
2022-12-10T10:48:38.148Z,78.17
2022-12-10T10:51:19.760Z,78.26
2022-12-10T10:53:53.850Z,78.27
2022-12-10T10:56:27.607Z,78.40
2022-12-10T10:59:03.971Z,78.06
2022-12-10T11:01:49.914Z,78.23
2022-12-10T11:04:30.297Z,78.31
2022-12-10T11:07:05.564Z,78.42
2022-12-10T11:09:39.628Z,78.33
2022-12-10T11:12:32.198Z,78.22
2022-12-10T11:15:16.166Z,78.25
2022-12-10T11:17:53.175Z,78.13
2022-12-10T11:20:28.796Z,78.01
2022-12-10T11:23:03.245Z,77.64
2022-12-10T11:25:46.190Z,77.82
2022-12-10T11:28:34.869Z,78.06
2022-12-10T11:31:25.189Z,77.90
2022-12-10T11:34:07.673Z,77.80
2022-12-10T11:36:46.729Z,77.96
2022-12-10T11:39:35.214Z,78.11
2022-12-10T11:42:14.977Z,78.39
2022-12-10T11:44:56.129Z,78.24
2022-12-10T11:47:44.836Z,78.26
2022-12-10T11:50:27.806Z,78.06
2022-12-10T11:53:22.888Z,78.30
2022-12-10T11:56:06.218Z,78.06
2022-12-10T11:58:54.797Z,77.98
2022-12-10T12:01:38.281Z,77.78
2022-12-10T12:04:26.446Z,77.49
2022-12-10T12:07:11.137Z,77.38
2022-12-10T12:09:56.664Z,77.31
2022-12-10T12:12:37.665Z,77.34
2022-12-10T12:15:21.410Z,77.56
2022-12-10T12:17:58.642Z,77.62
2022-12-10T12:20:34.599Z,77.66
2022-12-10T12:23:17.730Z,77.96
2022-12-10T12:25:53.887Z,77.82
2022-12-10T12:28:32.542Z,78.07
2022-12-10T12:31:08.149Z,78.12
2022-12-10T12:33:47.390Z,78.06
2022-12-10T12:36:23.426Z,77.77
2022-12-10T12:39:00.815Z,78.03
2022-12-10T12:41:42.198Z,77.73
2022-12-10T12:44:21.895Z,77.60
2022-12-10T12:46:54.845Z,77.37
2022-12-10T12:49:32.590Z,77.53
2022-12-10T12:52:09.967Z,77.24
2022-12-10T12:54:42.981Z,77.53
2022-12-10T12:57:23.938Z,77.53
2022-12-10T13:00:04.240Z,77.74
2022-12-10T13:02:51.080Z,77.76
2022-12-10T13:05:30.108Z,77.74
2022-12-10T13:08:33.819Z,77.72
2022-12-10T13:11:31.332Z,77.58
2022-12-10T13:14:32.681Z,77.72
2022-12-10T13:17:25.582Z,77.44
2022-12-10T13:20:18.334Z,77.66
2022-12-10T13:22:59.923Z,77.54
2022-12-10T13:25:59.010Z,77.42
2022-12-10T13:28:42.761Z,77.35
2022-12-10T13:31:36.503Z,77.14
2022-12-10T13:34:32.412Z,77.40
2022-12-10T13:37:20.194Z,77.10
2022-12-10T13:40:02.885Z,77.29
2022-12-10T13:42:54.739Z,77.30
2022-12-10T13:45:36.917Z,77.17
2022-12-10T13:48:33.341Z,77.50
2022-12-10T13:51:25.952Z,77.39
2022-12-10T13:54:18.521Z,77.55
2022-12-10T13:57:01.675Z,77.54
2022-12-10T13:59:44.095Z,77.69
2022-12-10T14:02:34.856Z,77.43
2022-12-10T14:05:29.893Z,77.31
2022-12-10T14:08:04.707Z,77.13
2022-12-10T14:10:38.989Z,77.00
2022-12-10T14:13:15.458Z,77.13
2022-12-10T14:15:55.384Z,76.97
2022-12-10T14:18:29.297Z,76.71
2022-12-10T14:21:05.660Z,76.51
2022-12-10T14:23:48.653Z,76.44
2022-12-10T14:26:29.685Z,76.40
2022-12-10T14:29:12.399Z,76.56
2022-12-10T14:31:50.083Z,76.65
2022-12-10T14:34:27.154Z,76.89
2022-12-10T14:37:04.339Z,77.27
2022-12-10T14:39:40.555Z,77.22
2022-12-10T14:42:18.352Z,77.15
2022-12-10T14:44:58.559Z,77.15
2022-12-10T14:47:34.695Z,76.91
2022-12-10T14:50:12.495Z,76.83
2022-12-10T14:52:46.784Z,77.03
2022-12-10T14:55:22.197Z,77.01
2022-12-10T14:57:58.932Z,76.93
2022-12-10T15:00:31.488Z,76.92
2022-12-10T15:03:10.545Z,76.78
2022-12-10T15:05:42.858Z,76.48
2022-12-10T15:08:19.948Z,76.41
2022-12-10T15:10:56.955Z,76.73
2022-12-10T15:13:41.023Z,76.49
2022-12-10T15:16:21.096Z,76.62
2022-12-10T15:18:55.907Z,76.89
2022-12-10T15:21:28.716Z,76.97
2022-12-10T15:24:18.958Z,76.80
2022-12-10T15:26:52.819Z,76.88
2022-12-10T15:29:36.995Z,76.76
2022-12-10T15:32:16.387Z,76.59
2022-12-10T15:34:51.285Z,76.85
2022-12-10T15:37:26.762Z,76.37
2022-12-10T15:40:02.331Z,76.57
2022-12-10T15:42:41.972Z,76.32
2022-12-10T15:45:27.021Z,76.21
2022-12-10T15:48:00.876Z,76.36
2022-12-10T15:50:33.173Z,76.06
2022-12-10T15:53:05.447Z,75.85
2022-12-10T15:55:37.534Z,75.79
2022-12-10T15:58:14.799Z,75.80
2022-12-10T16:00:47.937Z,75.82
2022-12-10T16:03:20.766Z,75.95
2022-12-10T16:05:52.889Z,75.85
2022-12-10T16:08:28.101Z,75.95
2022-12-10T16:11:05.162Z,75.97
2022-12-10T16:13:41.479Z,76.13
2022-12-10T16:16:14.610Z,76.02
2022-12-10T16:18:47.000Z,75.96
2022-12-10T16:21:19.467Z,75.96
2022-12-10T16:23:51.690Z,75.82
2022-12-10T16:26:24.979Z,76.00
2022-12-10T16:28:57.045Z,75.93
2022-12-10T16:31:29.153Z,75.77
2022-12-10T16:34:01.436Z,75.58
2022-12-10T16:36:33.832Z,75.68
2022-12-10T16:39:06.769Z,75.46
2022-12-10T16:41:39.270Z,75.49
2022-12-10T16:44:11.643Z,75.59
2022-12-10T16:46:43.784Z,75.76
2022-12-10T16:49:15.935Z,75.84
2022-12-10T16:51:48.032Z,75.80
2022-12-10T16:54:20.213Z,75.95
2022-12-10T16:56:52.303Z,75.99
2022-12-10T16:59:24.728Z,76.17
2022-12-10T17:01:56.920Z,76.02
2022-12-10T17:04:29.193Z,75.77
2022-12-10T17:07:01.309Z,75.78
2022-12-10T17:09:33.408Z,75.89
2022-12-10T17:12:06.665Z,75.88
2022-12-10T17:14:42.397Z,75.67
2022-12-10T17:17:15.277Z,75.32
2022-12-10T17:19:47.375Z,75.41
2022-12-10T17:22:19.517Z,75.43
2022-12-10T17:24:51.658Z,75.33
2022-12-10T17:27:24.440Z,75.62
2022-12-10T17:29:57.862Z,75.71
2022-12-10T17:32:30.810Z,75.80
2022-12-10T17:35:02.867Z,75.71
2022-12-10T17:37:35.981Z,75.66
2022-12-10T17:40:16.931Z,75.50
2022-12-10T17:42:49.713Z,75.53
2022-12-10T17:45:22.952Z,75.45
2022-12-10T17:47:55.252Z,75.60
2022-12-10T17:50:32.592Z,75.55
2022-12-10T17:53:06.680Z,75.64
2022-12-10T17:55:42.625Z,75.52
2022-12-10T17:58:21.529Z,75.58
2022-12-10T18:00:54.659Z,75.13
2022-12-10T18:03:26.847Z,75.14
2022-12-10T18:05:59.043Z,75.21
2022-12-10T18:08:31.231Z,75.30
2022-12-10T18:11:03.457Z,75.38
2022-12-10T18:13:35.572Z,75.62
2022-12-10T18:16:12.234Z,75.64
2022-12-10T18:18:44.922Z,75.61
2022-12-10T18:21:19.531Z,75.63
2022-12-10T18:23:51.847Z,75.53
2022-12-10T18:26:26.986Z,75.63
2022-12-10T18:29:01.330Z,75.48
2022-12-10T18:31:36.032Z,75.46
2022-12-10T18:34:12.219Z,75.59
2022-12-10T18:36:46.617Z,75.50
2022-12-10T18:39:21.885Z,75.57
2022-12-10T18:41:54.970Z,75.42
2022-12-10T18:44:30.287Z,75.31
2022-12-10T18:47:02.383Z,75.14
2022-12-10T18:49:34.522Z,75.08
2022-12-10T18:52:07.713Z,74.94
2022-12-10T18:54:41.168Z,74.95
2022-12-10T19:00:17.935Z,75.33
2022-12-10T19:02:50.399Z,75.41
2022-12-10T19:05:22.603Z,75.34
2022-12-10T19:07:54.857Z,75.41
2022-12-10T19:10:27.281Z,75.30
2022-12-10T19:12:59.413Z,75.34
2022-12-10T19:15:31.743Z,75.27
2022-12-10T19:18:04.575Z,75.34
2022-12-10T19:20:37.146Z,75.39
2022-12-10T19:23:09.392Z,75.14
2022-12-10T19:25:41.458Z,74.98
2022-12-10T19:28:19.362Z,74.77
2022-12-10T19:30:52.531Z,74.74
2022-12-10T19:33:24.849Z,74.62
2022-12-10T19:35:57.273Z,74.59
2022-12-10T19:38:29.522Z,74.49
2022-12-10T19:41:01.662Z,74.77
2022-12-10T19:43:33.727Z,74.91
2022-12-10T19:46:13.011Z,74.86
2022-12-10T19:48:45.999Z,75.11
2022-12-10T19:51:18.486Z,74.95
2022-12-10T19:53:55.143Z,75.10
2022-12-10T19:56:30.209Z,75.04
2022-12-10T19:59:03.963Z,75.12
2022-12-10T20:01:36.153Z,75.04
2022-12-10T20:04:08.685Z,74.92
2022-12-10T20:06:44.182Z,74.79
2022-12-10T20:09:21.007Z,74.85
2022-12-10T20:11:53.485Z,74.63
2022-12-10T20:14:26.342Z,74.55
2022-12-10T20:16:58.427Z,74.61
2022-12-10T20:19:30.577Z,74.51
2022-12-10T20:22:05.880Z,74.73
2022-12-10T20:24:38.935Z,74.77
2022-12-10T20:27:15.223Z,74.69
2022-12-10T20:29:47.415Z,74.70
2022-12-10T20:32:20.429Z,74.30
2022-12-10T20:34:52.571Z,74.56
2022-12-10T20:37:24.586Z,74.70
2022-12-10T20:40:22.350Z,74.67
2022-12-10T20:42:48.841Z,74.60
2022-12-10T20:45:21.627Z,74.65
2022-12-10T20:47:53.843Z,74.59
2022-12-10T20:50:26.167Z,74.55
2022-12-10T20:52:58.332Z,74.46
2022-12-10T20:55:30.588Z,74.45
2022-12-10T20:58:02.797Z,74.34
2022-12-10T21:00:34.938Z,74.40
2022-12-10T21:03:07.084Z,74.44
2022-12-10T21:05:39.301Z,74.50
2022-12-10T21:08:13.086Z,74.45
2022-12-10T21:10:55.008Z,74.45
2022-12-10T21:13:29.199Z,74.69
2022-12-10T21:16:03.593Z,74.77
2022-12-10T21:18:35.938Z,74.70
2022-12-10T21:21:08.419Z,74.76
2022-12-10T21:23:40.743Z,74.70
2022-12-10T21:26:14.796Z,74.76
2022-12-10T21:28:47.349Z,74.69
2022-12-10T21:31:22.311Z,74.70
2022-12-10T21:33:53.556Z,74.66
2022-12-10T21:36:26.027Z,74.72
2022-12-10T21:38:58.939Z,74.56
2022-12-10T21:41:48.799Z,74.59
2022-12-10T21:44:21.096Z,74.32
2022-12-10T21:46:53.336Z,74.06
2022-12-10T21:49:25.507Z,74.08
2022-12-10T21:51:58.932Z,74.15
2022-12-10T21:54:31.354Z,74.19
2022-12-10T21:57:03.499Z,74.31
2022-12-10T21:59:35.639Z,74.26
2022-12-10T22:02:08.037Z,74.42
2022-12-10T22:04:40.650Z,74.33
2022-12-10T22:07:12.886Z,74.38
2022-12-10T22:09:44.978Z,74.51
2022-12-10T22:12:17.096Z,74.42
2022-12-10T22:14:49.211Z,74.29
2022-12-10T22:17:22.098Z,74.42
2022-12-10T22:19:54.291Z,74.44
2022-12-10T22:22:26.408Z,74.28
2022-12-10T22:24:58.549Z,74.26
2022-12-10T22:27:33.346Z,74.19
2022-12-10T22:30:08.420Z,74.27
2022-12-10T22:32:39.355Z,74.28
2022-12-10T22:35:12.649Z,74.03
2022-12-10T22:37:44.848Z,74.01
2022-12-10T22:40:17.141Z,74.16
2022-12-10T22:42:49.977Z,73.89
2022-12-10T22:45:22.860Z,73.96
2022-12-10T22:47:54.977Z,74.02
2022-12-10T22:50:28.295Z,74.35
2022-12-10T22:53:00.362Z,74.25
2022-12-10T22:55:32.529Z,74.36
2022-12-10T22:58:05.857Z,74.05
2022-12-10T23:00:38.134Z,74.20
2022-12-10T23:03:10.265Z,74.26
2022-12-10T23:05:42.380Z,74.23
2022-12-10T23:08:14.597Z,74.35
2022-12-10T23:10:46.899Z,74.19
2022-12-10T23:13:22.015Z,73.96
2022-12-10T23:15:55.624Z,74.12
2022-12-10T23:18:27.880Z,74.05
2022-12-10T23:21:00.202Z,73.95
2022-12-10T23:23:32.523Z,73.89
2022-12-10T23:26:05.820Z,73.85
2022-12-10T23:28:38.012Z,73.78
2022-12-10T23:31:11.476Z,73.69
2022-12-10T23:33:44.189Z,73.64
2022-12-10T23:36:16.360Z,73.83
2022-12-10T23:38:48.604Z,74.04
2022-12-10T23:41:20.748Z,74.08
2022-12-10T23:43:57.191Z,74.13
2022-12-10T23:46:29.744Z,73.86
2022-12-10T23:49:02.244Z,73.87
2022-12-10T23:51:34.337Z,73.97
2022-12-10T23:54:06.760Z,73.83
2022-12-10T23:56:38.851Z,74.10
2022-12-10T23:59:11.300Z,73.97
